Time;durP1;ratioP1;P1;durP2;ratioP2;P2;SDS_P1;SDS_P2;PMS_P1;PMS_P2;Temp;Humidity;BMP_temperature;BMP_pressure;BME280_temperature;BME280_humidity;BME280_pressure;Samples;Min_cycle;Max_cycle;Signal;HPM_P1;HPM_P2
2021/12/04 00:00:27;;;;;;;1.45;1.35;;;;;;;5.60;58.79;93268.69;4979811;28;20034;-85
2021/12/04 00:02:53;;;;;;;2.05;1.58;;;;;;;4.93;58.39;93162.97;4985895;28;20105;-85
2021/12/04 00:05:20;;;;;;;2.05;1.55;;;;;;;5.84;58.01;93285.06;4984603;28;20062;-85
2021/12/04 00:07:49;;;;;;;2.05;1.80;;;;;;;5.06;57.62;93149.00;4984687;28;20036;-85
2021/12/04 00:10:21;;;;;;;2.33;1.92;;;;;;;4.59;57.75;93067.75;4983017;28;20060;-85
2021/12/04 00:12:46;;;;;;;3.28;1.95;;;;;;;5.62;58.22;93234.91;4972331;28;20196;-85
2021/12/04 00:15:19;;;;;;;3.53;2.38;;;;;;;5.36;57.99;93175.81;4983698;28;20026;-85
2021/12/04 00:17:47;;;;;;;2.83;2.45;;;;;;;5.99;57.80;93262.84;4980914;28;20445;-85
2021/12/04 00:20:13;;;;;;;2.83;2.35;;;;;;;5.46;57.58;93191.44;4985862;28;20515;-85
2021/12/04 00:22:46;;;;;;;3.85;2.28;;;;;;;6.07;57.61;93282.50;4967113;28;20046;-85
2021/12/04 00:25:24;;;;;;;;;;;;;;;;;;;;;
2021/12/04 00:27:54;;;;;;;3.50;2.50;;;;;;;5.09;56.88;93090.44;4980054;28;20474;-85
2021/12/04 00:30:22;;;;;;;3.53;2.40;;;;;;;5.10;56.81;93089.34;4964475;28;20030;-86
2021/12/04 00:33:24;;;;;;;4.78;2.35;;;;;;;5.54;56.75;93153.81;4965607;28;20046;-85
2021/12/04 00:35:54;;;;;;;2.13;1.92;;;;;;;5.46;57.07;93172.97;4963711;28;20058;-85
2021/12/04 00:49:17;;;;;;;3.50;2.63;;;;;;;6.03;56.86;93232.16;4984105;28;20093;-86
2021/12/04 00:51:50;;;;;;;3.80;2.78;;;;;;;5.65;56.66;93181.53;4980315;28;20492;-86
2021/12/04 00:54:18;;;;;;;4.28;2.33;;;;;;;5.91;57.00;93243.25;4968270;28;20030;-85
2021/12/04 00:56:46;;;;;;;5.40;3.10;;;;;;;5.19;56.98;93146.66;4984582;28;20045;-86
2021/12/04 00:59:15;;;;;;;4.35;2.30;;;;;;;3.86;56.41;92931.75;4990729;28;20029;-85
2021/12/04 01:01:42;;;;;;;2.25;2.03;;;;;;;5.52;56.07;93171.81;4962592;28;21020;-86
2021/12/04 01:04:10;;;;;;;3.22;2.92;;;;;;;5.13;56.12;93128.31;4990650;28;20057;-86
2021/12/04 01:06:53;;;;;;;2.30;2.10;;;;;;;6.05;56.39;93279.38;4980798;28;20042;-85
2021/12/04 01:09:21;;;;;;;2.75;2.47;;;;;;;4.50;56.89;93019.50;4980452;28;20030;-86
2021/12/04 01:11:50;;;;;;;2.55;2.30;;;;;;;6.11;56.69;93257.06;4985351;28;20113;-85
2021/12/04 01:14:18;;;;;;;3.95;2.30;;;;;;;5.99;57.08;93239.88;4980410;28;20471;-85
2021/12/04 01:16:44;;;;;;;2.50;2.03;;;;;;;5.53;56.40;93141.69;4978946;28;20467;-85
2021/12/04 01:19:10;;;;;;;2.75;1.95;;;;;;;3.96;56.41;92921.03;4966291;28;20029;-85
2021/12/04 01:21:38;;;;;;;2.60;1.98;;;;;;;4.11;56.28;92915.47;4976793;28;20049;-85
2021/12/04 01:24:03;;;;;;;3.15;2.40;;;;;;;4.02;56.68;92946.16;4980989;28;20065;-85
2021/12/04 01:26:29;;;;;;;3.60;2.17;;;;;;;4.43;56.57;93017.25;4976822;28;20879;-85
2021/12/04 01:28:55;;;;;;;4.30;2.25;;;;;;;3.61;56.60;92911.19;4983619;28;20246;-85
2021/12/04 01:31:21;;;;;;;3.33;2.38;;;;;;;4.95;56.89;93109.97;4955881;28;20038;-86
2021/12/04 01:33:52;;;;;;;2.70;2.05;;;;;;;4.28;56.90;93028.03;4964461;28;20236;-85
2021/12/04 01:36:17;;;;;;;2.00;1.70;;;;;;;5.13;57.60;93228.47;4983616;28;20033;-86
2021/12/04 01:38:43;;;;;;;2.30;1.63;;;;;;;4.99;57.40;93227.66;4982444;28;20302;-85
2021/12/04 01:41:09;;;;;;;1.70;1.60;;;;;;;3.60;57.70;93033.97;4973053;28;20044;-85
2021/12/04 01:43:35;;;;;;;1.80;1.60;;;;;;;3.82;57.49;93084.09;4968889;28;20038;-86
2021/12/04 01:46:10;;;;;;;2.58;1.92;;;;;;;4.57;57.46;93225.28;4978230;28;20447;-85
2021/12/04 01:48:36;;;;;;;2.88;2.20;;;;;;;3.82;57.77;93101.72;4978155;28;20041;-85
2021/12/04 01:51:03;;;;;;;2.65;1.83;;;;;;;4.38;58.88;93242.97;4962428;28;20026;-86
2021/12/04 01:53:28;;;;;;;2.15;1.42;;;;;;;4.29;58.95;93211.22;4981216;28;20520;-85
2021/12/04 01:55:56;;;;;;;2.20;1.80;;;;;;;4.64;58.34;93246.75;4993595;28;20046;-85
2021/12/04 01:58:26;;;;;;;6.65;1.75;;;;;;;3.67;58.69;93094.84;4991634;28;20047;-85
2021/12/04 02:00:55;;;;;;;2.15;1.95;;;;;;;4.41;59.17;93200.25;4984893;28;20098;-85
2021/12/04 02:03:21;;;;;;;3.35;2.25;;;;;;;2.46;59.24;92910.16;4971632;28;20380;-85
2021/12/04 02:05:48;;;;;;;2.25;1.88;;;;;;;3.48;59.76;93101.25;4978334;28;20037;-85
2021/12/04 02:08:24;;;;;;;2.75;1.98;;;;;;;2.18;59.59;92914.47;4979738;28;20050;-85
2021/12/04 02:10:52;;;;;;;3.47;1.70;;;;;;;2.78;60.02;93043.34;4962959;28;20034;-85
2021/12/04 02:13:18;;;;;;;2.92;1.90;;;;;;;1.93;60.18;92922.66;4961234;28;20511;-85
2021/12/04 02:15:45;;;;;;;2.20;2.00;;;;;;;2.80;60.59;93056.97;4976464;28;20165;-84
2021/12/04 02:18:12;;;;;;;2.22;1.80;;;;;;;3.81;60.81;93208.03;4968397;28;20100;-85
2021/12/04 02:20:39;;;;;;;2.35;1.85;;;;;;;2.76;61.07;93066.47;4954443;28;20057;-84
2021/12/04 02:23:12;;;;;;;1.65;1.55;;;;;;;1.62;61.31;92899.38;4960469;28;20038;-84
2021/12/04 02:25:38;;;;;;;2.65;1.77;;;;;;;3.23;61.41;93121.53;4962427;28;20049;-85
2021/12/04 02:28:06;;;;;;;2.63;1.92;;;;;;;3.50;61.73;93143.78;4979964;28;20046;-85
2021/12/04 02:30:36;;;;;;;1.75;1.42;;;;;;;4.03;61.93;93231.91;4972888;28;20136;-84
2021/12/04 02:33:11;;;;;;;2.72;2.10;;;;;;;4.07;61.86;93235.50;4980806;28;20103;-84
2021/12/04 02:35:48;;;;;;;2.38;2.05;;;;;;;2.60;61.93;92999.50;4982642;28;20469;-84
2021/12/04 02:38:18;;;;;;;1.80;1.70;;;;;;;4.18;61.58;93223.78;4983978;28;20503;-84
2021/12/04 02:40:48;;;;;;;2.90;1.77;;;;;;;3.35;60.75;93064.09;4979989;28;20045;-85
2021/12/04 02:43:14;;;;;;;2.08;1.80;;;;;;;3.46;61.15;93053.41;4976489;28;20046;-85
2021/12/04 02:45:42;;;;;;;1.92;1.77;;;;;;;3.43;60.58;93048.75;4980970;28;20050;-85
2021/12/04 02:48:07;;;;;;;2.13;1.77;;;;;;;4.42;59.46;93151.81;4977078;28;20022;-85
2021/12/04 02:50:39;;;;;;;2.20;1.55;;;;;;;4.54;59.74;93184.50;4972151;28;20045;-84
2021/12/04 02:53:04;;;;;;;3.17;2.20;;;;;;;2.95;59.30;92905.22;4971859;28;20038;-85
2021/12/04 02:55:44;;;;;;;3.00;2.35;;;;;;;3.56;59.02;92995.41;4961827;28;20049;-85
2021/12/04 02:58:10;;;;;;;2.97;2.65;;;;;;;4.32;59.21;93094.06;4956373;28;20058;-85
2021/12/04 03:00:41;;;;;;;3.20;2.10;;;;;;;4.34;58.42;93062.97;4980459;28;20158;-85
2021/12/04 03:03:07;;;;;;;3.38;2.72;;;;;;;5.41;58.24;93194.19;4982769;28;20407;-85
2021/12/04 03:05:36;;;;;;;3.22;2.92;;;;;;;5.50;57.88;93214.28;4981824;28;20088;-86
2021/12/04 03:08:03;;;;;;;2.30;2.10;;;;;;;4.12;57.72;92980.16;4981540;28;20037;-86
2021/12/04 03:10:28;;;;;;;3.80;2.85;;;;;;;3.62;57.50;92902.25;4976590;28;20142;-86
2021/12/04 03:13:09;;;;;;;3.00;2.35;;;;;;;5.61;56.97;93175.28;4978461;28;20667;-85
2021/12/04 03:15:38;;;;;;;2.42;2.20;;;;;;;3.89;57.02;92919.88;4980459;28;20084;-85
2021/12/04 03:18:06;;;;;;;3.53;2.58;;;;;;;5.81;56.94;93221.56;4978597;28;20029;-84
2021/12/04 03:20:40;;;;;;;3.13;2.53;;;;;;;4.68;57.87;93079.16;4976548;28;20274;-85
2021/12/04 03:23:11;;;;;;;2.65;2.35;;;;;;;3.47;57.57;92886.75;4951147;28;20050;-86
2021/12/04 03:25:38;;;;;;;5.13;2.90;;;;;;;4.07;57.74;92984.75;4965634;28;20399;-85
2021/12/04 03:28:06;;;;;;;3.22;2.92;;;;;;;3.89;57.76;92952.22;4962915;28;20045;-85
2021/12/04 03:41:10;;;;;;;6.88;3.25;;;;;;;4.79;57.93;93153.50;4929863;28;20176;-86
2021/12/04 03:43:36;;;;;;;6.70;2.78;;;;;;;4.78;58.58;93178.28;4931739;28;20047;-85
2021/12/04 03:46:06;;;;;;;3.70;2.53;;;;;;;5.12;58.53;93237.47;4952186;28;20195;-84
2021/12/04 03:51:00;;;;;;;5.40;3.33;;;;;;;4.13;59.08;93115.94;4986380;28;20041;-84
2021/12/04 03:53:25;;;;;;;5.35;3.28;;;;;;;3.36;59.49;93030.69;4967089;28;20093;-84
2021/12/04 03:55:56;;;;;;;4.35;2.80;;;;;;;2.86;59.25;92935.03;4979801;28;20403;-85
2021/12/04 03:58:26;;;;;;;3.53;2.63;;;;;;;2.58;59.56;92897.41;4986462;28;20060;-85
2021/12/04 04:00:52;;;;;;;6.80;2.60;;;;;;;3.99;59.75;93141.44;4974476;28;20610;-85
2021/12/04 04:03:17;;;;;;;3.55;3.03;;;;;;;4.24;60.14;93185.78;4963176;28;20093;-85
2021/12/04 04:05:43;;;;;;;3.72;2.42;;;;;;;4.53;59.82;93253.25;4975359;28;20448;-85
2021/12/04 04:08:11;;;;;;;4.90;3.28;;;;;;;4.48;60.24;93255.97;4956804;28;20038;-85
2021/12/04 04:10:37;;;;;;;3.40;2.85;;;;;;;4.07;60.61;93203.94;4950599;28;20035;-85
2021/12/04 04:13:11;;;;;;;3.92;2.42;;;;;;;4.42;61.04;93259.75;4966851;28;20330;-85
2021/12/04 04:15:37;;;;;;;3.40;2.15;;;;;;;2.64;62.01;93000.50;4948187;28;20105;-85
2021/12/04 04:18:03;;;;;;;3.75;2.53;;;;;;;3.03;61.21;93085.03;4982858;28;20184;-85
2021/12/04 04:20:30;;;;;;;3.05;2.63;;;;;;;2.60;61.03;93025.75;4954795;28;20583;-86
2021/12/04 04:22:56;;;;;;;2.92;2.40;;;;;;;4.02;61.18;93217.16;4978703;28;20078;-86
2021/12/04 04:25:24;;;;;;;3.17;2.45;;;;;;;2.06;61.76;92935.09;4982364;28;20141;-86
2021/12/04 04:27:50;;;;;;;2.88;2.25;;;;;;;2.85;61.95;93044.56;4974980;28;20046;-85
2021/12/04 04:30:18;;;;;;;3.70;3.03;;;;;;;4.00;60.99;93195.63;4960208;28;20309;-85
2021/12/04 04:32:46;;;;;;;3.30;3.00;;;;;;;3.38;60.17;93113.44;4983511;28;20058;-85
2021/12/04 04:35:15;;;;;;;2.25;2.08;;;;;;;3.00;60.03;93040.94;4961264;28;20058;-85
2021/12/04 05:10:50;;;;;;;2.70;1.98;;;;;;;3.92;60.95;93288.34;4980899;28;20041;-84
2021/12/04 05:13:16;;;;;;;3.53;2.30;;;;;;;3.50;60.74;93236.56;4978116;28;20185;-85
2021/12/04 05:15:56;;;;;;;4.00;2.58;;;;;;;3.82;60.92;93293.75;4979278;28;20048;-85
2021/12/04 05:21:03;;;;;;;6.10;3.40;;;;;;;3.77;60.58;93247.25;4977770;28;20029;-85
2021/12/04 05:23:31;;;;;;;2.95;2.50;;;;;;;3.96;60.49;93273.59;4980307;28;20136;-86
2021/12/04 05:25:59;;;;;;;7.28;3.92;;;;;;;2.12;60.38;92993.50;4985678;28;20173;-85
2021/12/04 05:28:26;;;;;;;5.00;3.03;;;;;;;2.66;60.66;93050.84;4934832;28;20046;-85
2021/12/04 05:30:52;;;;;;;5.20;2.97;;;;;;;4.10;60.75;93255.22;4958070;28;20510;-85
2021/12/04 05:33:18;;;;;;;3.97;2.65;;;;;;;4.07;60.54;93243.41;4976906;28;20104;-86
2021/12/04 05:35:47;;;;;;;5.88;3.28;;;;;;;4.19;59.96;93256.13;4967610;28;20030;-84
2021/12/04 05:38:13;;;;;;;2.05;1.85;;;;;;;4.04;60.41;93275.56;4988309;28;20034;-85
2021/12/04 05:40:38;;;;;;;2.58;2.05;;;;;;;3.83;59.76;93240.84;4994167;28;20358;-85
2021/12/04 05:43:04;;;;;;;6.22;2.20;;;;;;;3.84;59.47;93247.69;4970488;28;20332;-85
2021/12/04 05:45:33;;;;;;;3.10;2.45;;;;;;;3.89;59.46;93274.97;4972798;28;20038;-85
2021/12/04 05:53:18;;;;;;;3.97;2.30;;;;;;;2.38;60.34;93066.41;4973394;28;20108;-85
2021/12/04 05:55:52;;;;;;;3.50;2.65;;;;;;;3.42;61.08;93233.81;4958516;28;20780;-85
2021/12/04 05:58:28;;;;;;;3.08;2.15;;;;;;;3.53;60.51;93232.59;4961994;28;20049;-86
2021/12/04 06:00:55;;;;;;;5.53;3.03;;;;;;;3.37;60.35;93187.34;4980336;28;20034;-85
2021/12/04 06:03:21;;;;;;;4.05;2.90;;;;;;;3.76;60.79;93271.22;4980440;28;20048;-85
2021/12/04 06:05:47;;;;;;;4.28;2.75;;;;;;;3.73;60.26;93240.22;4973470;28;20530;-85
2021/12/04 06:08:12;;;;;;;5.25;2.97;;;;;;;3.79;60.04;93246.97;4983518;28;20045;-85
2021/12/04 06:10:39;;;;;;;3.95;2.90;;;;;;;4.22;59.95;93298.44;4977655;28;20030;-85
2021/12/04 06:13:04;;;;;;;3.20;2.60;;;;;;;4.34;59.43;93287.53;4978347;28;20042;-86
2021/12/04 06:15:30;;;;;;;3.95;2.50;;;;;;;4.32;59.26;93281.75;4976809;28;20034;-85
2021/12/04 06:17:55;;;;;;;5.47;3.35;;;;;;;4.54;58.54;93300.38;4983479;28;20125;-86
2021/12/04 06:23:06;;;;;;;5.95;3.70;;;;;;;3.13;59.21;93128.78;4983973;28;20394;-84
2021/12/04 06:25:31;;;;;;;8.88;3.80;;;;;;;2.34;59.61;93004.28;4974257;28;20030;-85
2021/12/04 06:27:57;;;;;;;6.22;3.70;;;;;;;3.68;59.90;93245.53;4979388;28;20034;-85
2021/12/04 06:30:25;;;;;;;3.72;2.83;;;;;;;3.14;59.52;93154.75;4972171;28;20034;-84
2021/12/04 06:32:53;;;;;;;4.80;3.25;;;;;;;3.39;59.64;93191.22;4983818;28;20069;-83
2021/12/04 06:35:20;;;;;;;4.20;3.03;;;;;;;2.94;59.58;93139.25;4997897;28;20515;-85
2021/12/04 06:37:48;;;;;;;5.88;2.97;;;;;;;2.27;59.30;93041.34;4974398;28;20084;-86
2021/12/04 06:40:18;;;;;;;3.72;2.55;;;;;;;1.55;59.86;92946.13;4980611;28;20502;-85
2021/12/04 06:42:46;;;;;;;3.35;2.75;;;;;;;2.26;60.82;93097.50;4979668;28;20415;-85
2021/12/04 06:45:12;;;;;;;4.07;3.10;;;;;;;2.35;60.65;93090.56;4970340;28;20555;-86
2021/12/04 06:47:40;;;;;;;5.40;4.00;;;;;;;1.93;60.22;92990.84;4965094;28;20037;-86
2021/12/04 06:50:20;;;;;;;3.97;2.70;;;;;;;3.85;60.22;93282.66;4958962;28;20034;-85
2021/12/04 06:52:55;;;;;;;5.47;3.60;;;;;;;3.94;59.71;93286.22;4963771;28;20173;-85
2021/12/04 06:55:26;;;;;;;4.75;3.72;;;;;;;2.21;58.80;92983.94;4978645;28;20041;-86
2021/12/04 06:57:53;;;;;;;5.28;3.20;;;;;;;4.01;58.63;93262.97;4984497;28;20066;-86
2021/12/04 07:00:19;;;;;;;3.70;3.15;;;;;;;3.37;58.80;93171.56;4980074;28;20026;-85
2021/12/04 07:02:49;;;;;;;4.70;3.28;;;;;;;3.23;59.10;93128.66;4976448;28;20296;-85
2021/12/04 07:05:14;;;;;;;6.32;3.63;;;;;;;3.38;58.58;93123.16;4971885;28;20514;-85
2021/12/04 07:07:40;;;;;;;4.60;3.63;;;;;;;3.15;58.31;93077.50;4965294;28;20034;-85
2021/12/04 07:10:13;;;;;;;3.42;3.10;;;;;;;3.21;57.34;93110.53;4978238;28;20038;-85
2021/12/04 07:12:47;;;;;;;4.57;3.28;;;;;;;2.68;57.98;93064.50;4979065;28;20038;-85
2021/12/04 07:15:18;;;;;;;6.40;3.55;;;;;;;4.09;58.71;93272.06;4957105;28;20107;-85
2021/12/04 07:17:46;;;;;;;5.32;3.95;;;;;;;1.99;58.89;92963.50;4962319;28;20037;-85
2021/12/04 07:20:38;;;;;;;15.63;7.80;;;;;;;3.01;59.57;93123.94;4982790;28;20042;-85
2021/12/04 07:23:04;;;;;;;12.77;7.18;;;;;;;3.13;59.86;93129.56;4980134;28;20046;-84
2021/12/04 07:25:33;;;;;;;7.00;4.68;;;;;;;4.65;59.43;93337.84;4978703;28;20054;-85
2021/12/04 07:27:59;;;;;;;8.55;5.53;;;;;;;4.69;59.39;93338.88;4962896;28;20143;-85
2021/12/04 07:30:28;;;;;;;12.20;6.95;;;;;;;4.51;60.00;93315.94;4983447;28;20038;-85
2021/12/04 07:32:54;;;;;;;10.35;6.43;;;;;;;4.65;59.76;93314.16;4971491;28;20786;-84
2021/12/04 07:35:40;;;;;;;5.97;4.60;;;;;;;4.88;59.11;93330.91;4977583;28;20048;-84
2021/12/04 07:38:06;;;;;;;7.95;5.15;;;;;;;4.14;58.54;93211.47;4976518;28;20475;-85
2021/12/04 07:40:32;;;;;;;7.25;5.45;;;;;;;3.52;59.45;93116.16;4942590;28;20043;-85
2021/12/04 07:43:01;;;;;;;7.05;4.43;;;;;;;3.26;59.52;93072.91;4971933;28;20499;-84
2021/12/04 07:45:26;;;;;;;5.60;3.55;;;;;;;4.31;58.80;93224.91;4961978;28;20039;-84
2021/12/04 07:47:52;;;;;;;7.45;4.38;;;;;;;4.17;58.13;93169.56;4957629;28;20026;-85
2021/12/04 07:50:36;;;;;;;8.38;4.47;;;;;;;3.64;57.96;93086.78;4973014;28;20044;-84
2021/12/04 07:53:02;;;;;;;9.68;5.00;;;;;;;3.69;57.88;93078.81;4937060;28;20046;-85
2021/12/04 07:55:31;;;;;;;6.50;4.82;;;;;;;2.93;58.03;92969.63;4977310;28;20270;-85
2021/12/04 07:57:57;;;;;;;6.38;4.32;;;;;;;3.58;58.27;93087.91;4979842;28;20855;-84
2021/12/04 08:00:27;;;;;;;6.38;4.60;;;;;;;2.83;58.68;92977.63;4963319;28;20026;-84
2021/12/04 08:02:56;;;;;;;11.75;7.35;;;;;;;4.16;58.29;93235.66;4966020;28;20054;-84
2021/12/04 08:05:22;;;;;;;7.97;4.85;;;;;;;4.58;58.47;93264.50;4956881;28;20494;-85
2021/12/04 08:07:57;;;;;;;6.05;4.85;;;;;;;2.57;57.52;92932.59;4957854;28;20086;-85
2021/12/04 08:10:23;;;;;;;6.60;4.03;;;;;;;4.68;57.38;93179.25;4979749;28;20663;-84
2021/12/04 08:12:52;;;;;;;9.35;5.10;;;;;;;5.26;56.94;93234.03;4959897;28;20782;-85
2021/12/04 08:15:21;;;;;;;7.68;4.35;;;;;;;5.40;56.39;93240.06;4977706;28;20393;-84
2021/12/04 08:17:47;;;;;;;7.47;4.20;;;;;;;5.60;55.92;93268.69;4976360;28;20033;-85
2021/12/04 08:20:14;;;;;;;7.72;5.88;;;;;;;5.30;55.82;93175.16;4959801;28;20394;-85
2021/12/04 08:22:49;;;;;;;6.47;4.43;;;;;;;3.93;55.55;92955.81;4980262;28;20510;-83
2021/12/04 08:25:21;;;;;;;8.38;5.00;;;;;;;6.02;55.42;93276.22;4988213;28;20042;-85
2021/12/04 08:27:49;;;;;;;8.00;4.72;;;;;;;4.84;55.38;93106.78;4971936;28;20045;-86
2021/12/04 08:30:22;;;;;;;10.27;5.40;;;;;;;5.11;56.36;93179.75;4977081;28;20033;-85
2021/12/04 08:32:54;;;;;;;9.30;5.25;;;;;;;4.91;56.15;93153.78;4981651;28;20070;-85
2021/12/04 08:35:29;;;;;;;8.60;5.28;;;;;;;3.81;55.02;92939.75;4974564;28;20121;-85
2021/12/04 08:37:58;;;;;;;11.07;5.93;;;;;;;4.72;54.52;93069.59;4963696;28;20844;-84
2021/12/04 08:40:52;;;;;;;14.27;6.60;;;;;;;3.83;55.18;92940.22;4940371;28;20054;-85
2021/12/04 08:43:19;;;;;;;15.18;7.35;;;;;;;5.09;55.16;93132.59;4956262;28;20661;-86
2021/12/04 08:45:54;;;;;;;12.07;6.45;;;;;;;4.13;55.58;92947.53;4952095;28;20069;-85
2021/12/04 08:48:42;;;;;;;11.65;6.88;;;;;;;3.87;54.94;92912.25;4979818;28;20057;-85
2021/12/04 08:51:08;;;;;;;10.05;6.75;;;;;;;5.76;55.35;93203.19;4955469;28;20041;-86
2021/12/04 08:53:45;;;;;;;17.35;7.90;;;;;;;3.66;55.04;92884.81;4967108;28;20419;-87
2021/12/04 08:56:16;;;;;;;9.68;6.65;;;;;;;5.46;55.26;93141.34;4979764;28;20551;-86
2021/12/04 08:58:42;;;;;;;16.65;8.23;;;;;;;5.00;55.55;93104.59;4976042;28;20231;-86
2021/12/04 09:01:30;;;;;;;15.07;7.18;;;;;;;4.72;55.71;93010.88;4958612;28;20178;-86
2021/12/04 09:04:23;;;;;;;16.85;7.85;;;;;;;5.66;55.22;93135.63;4956495;28;20042;-86
2021/12/04 09:07:10;;;;;;;11.68;6.43;;;;;;;3.83;55.93;92922.59;4972153;28;20046;-86
2021/12/04 09:09:58;;;;;;;;;;;;;;;;;;;;;
2021/12/04 09:12:38;;;;;;;12.25;6.68;;;;;;;6.33;54.96;93238.63;4954518;28;20619;-85
2021/12/04 09:15:19;;;;;;;11.13;5.90;;;;;;;4.38;54.60;92948.91;4951187;28;20026;-86
2021/12/04 09:17:53;;;;;;;11.73;6.28;;;;;;;4.76;54.72;93030.28;4940743;28;20054;-86
2021/12/04 09:20:21;;;;;;;11.85;6.43;;;;;;;4.30;54.90;92969.88;4971737;28;20032;-86
2021/12/04 09:23:00;;;;;;;9.02;5.97;;;;;;;4.05;55.47;92956.13;4959895;28;20041;-85
2021/12/04 09:25:33;;;;;;;10.93;7.13;;;;;;;5.28;56.51;93161.50;4963021;28;20038;-86
2021/12/04 09:28:35;;;;;;;12.52;7.85;;;;;;;4.04;56.19;92953.78;4936376;28;20051;-86
2021/12/04 09:31:25;;;;;;;14.15;7.20;;;;;;;4.34;56.48;93039.28;4954429;28;20038;-85
2021/12/04 10:01:59;;;;;;;15.90;8.02;;;;;;;4.25;55.41;93003.09;4939557;28;20039;-84
2021/12/04 10:13:41;;;;;;;8.90;5.35;;;;;;;5.60;56.16;93242.31;4938585;28;20057;-86
2021/12/04 10:22:35;;;;;;;11.85;6.68;;;;;;;4.66;55.93;93018.09;4942004;28;20043;-85
2021/12/04 10:34:09;;;;;;;24.58;11.43;;;;;;;3.83;57.18;92927.06;4959176;28;20053;-85
2021/12/04 10:36:39;;;;;;;16.63;8.45;;;;;;;3.37;57.44;92856.16;4942669;28;20047;-86
2021/12/04 10:39:15;;;;;;;10.90;5.80;;;;;;;4.10;56.06;92905.25;4957289;28;20026;-85
2021/12/04 10:41:44;;;;;;;10.40;6.63;;;;;;;6.15;55.73;93221.06;4959909;28;20564;-86
2021/12/04 10:44:24;;;;;;;13.27;8.07;;;;;;;4.87;55.90;93029.78;4941343;28;20038;-86
2021/12/04 10:47:05;;;;;;;16.92;9.20;;;;;;;5.83;54.91;93125.19;4936165;28;20042;-85
2021/12/04 10:49:41;;;;;;;13.85;7.40;;;;;;;6.33;55.05;93196.38;4931417;28;20516;-86
2021/12/04 10:52:28;;;;;;;14.63;8.50;;;;;;;5.75;55.22;93110.06;4951045;28;20047;-86
2021/12/04 10:55:32;;;;;;;11.20;7.30;;;;;;;5.57;57.47;93221.81;4956471;28;20714;-86
2021/12/04 11:01:42;;;;;;;15.73;7.38;;;;;;;3.88;57.84;92929.59;4956523;28;20043;-86
2021/12/04 11:37:09;;;;;;;18.03;9.67;;;;;;;4.92;54.38;92897.94;4956528;28;20113;-86
2021/12/04 11:42:18;;;;;;;18.45;10.00;;;;;;;4.52;54.15;92859.34;4954729;28;20092;-86
2021/12/04 11:44:53;;;;;;;20.10;10.57;;;;;;;4.94;54.15;92924.75;4939429;28;20069;-88
2021/12/04 11:47:19;;;;;;;19.73;10.20;;;;;;;5.97;54.63;93086.31;4937244;28;20073;-86
2021/12/04 11:49:45;;;;;;;18.77;9.63;;;;;;;6.07;54.15;93069.44;4956068;28;20519;-85
2021/12/04 11:52:16;;;;;;;15.60;8.90;;;;;;;5.04;54.29;92902.66;4936844;28;20114;-85
2021/12/04 11:54:58;;;;;;;13.27;8.02;;;;;;;6.55;54.43;93166.53;4942657;28;20566;-85
2021/12/04 11:57:33;;;;;;;13.63;7.43;;;;;;;6.82;54.76;93206.75;4952569;28;20056;-85
2021/12/04 12:03:12;;;;;;;12.38;6.70;;;;;;;4.84;53.97;92914.47;4949631;28;20054;-85
2021/12/04 12:05:50;;;;;;;11.40;6.60;;;;;;;6.78;54.21;93211.09;4953610;28;20406;-86
2021/12/04 12:08:45;;;;;;;14.02;7.07;;;;;;;6.52;54.77;93204.88;4952137;28;20364;-86
2021/12/04 12:11:20;;;;;;;15.80;9.10;;;;;;;6.76;54.59;93207.97;4935172;28;20050;-86
2021/12/04 12:13:50;;;;;;;10.82;6.20;;;;;;;5.90;54.34;93083.31;4956265;28;20076;-85
2021/12/04 12:16:32;;;;;;;11.70;6.10;;;;;;;6.91;54.12;93214.72;4955771;28;20121;-86
2021/12/04 12:19:06;;;;;;;11.75;6.25;;;;;;;5.57;53.79;92974.66;4955782;28;20046;-86
2021/12/04 12:21:56;;;;;;;18.03;8.40;;;;;;;6.85;54.74;93213.28;4936836;28;20031;-86
2021/12/04 12:33:15;;;;;;;17.75;9.98;;;;;;;7.23;53.82;93213.63;4952731;28;20057;-85
2021/12/04 12:36:06;;;;;;;;;;;;;;;7.30;53.71;93216.59;4927348;28;20434;-85
2021/12/04 12:38:56;;;;;;;11.10;6.43;;;;;;;7.13;52.92;93176.88;4927458;28;19926;-85
2021/12/04 12:41:30;;;;;;;15.10;8.98;;;;;;;7.38;52.58;93210.56;4939141;28;20539;-85
2021/12/04 12:44:15;;;;;;;18.50;8.80;;;;;;;7.11;53.39;93200.97;4938380;28;20526;-85
2021/12/04 12:47:04;;;;;;;13.97;8.77;;;;;;;7.04;53.97;93211.22;4937135;28;20101;-86
2021/12/04 12:49:30;;;;;;;13.90;6.95;;;;;;;6.63;54.40;93210.69;4960795;28;20276;-86
2021/12/04 12:52:03;;;;;;;10.38;6.03;;;;;;;6.14;55.19;93177.25;4948331;28;20089;-85
2021/12/04 12:54:34;;;;;;;10.88;6.95;;;;;;;6.43;54.79;93173.13;4938932;28;20034;-85
2021/12/04 12:57:19;;;;;;;12.40;6.57;;;;;;;6.08;54.71;93086.84;4952701;28;20042;-86
2021/12/04 13:13:56;;;;;;;14.07;8.32;;;;;;;6.86;52.38;93154.84;4949242;28;20044;-85
2021/12/04 13:16:31;;;;;;;13.57;7.20;;;;;;;7.19;53.23;93231.94;4953220;28;20035;-85
2021/12/04 13:18:59;;;;;;;;;;;;;;;7.11;53.43;93234.56;4948564;28;20051;-85
2021/12/04 13:21:26;;;;;;;16.45;8.05;;;;;;;6.94;53.79;93213.34;4953625;28;20378;-84
2021/12/04 13:23:54;;;;;;;15.10;7.85;;;;;;;6.09;54.41;93101.59;4954016;28;20065;-86
2021/12/04 13:26:26;;;;;;;14.75;7.85;;;;;;;6.05;54.95;93091.94;4936237;28;20180;-85
2021/12/04 13:28:53;;;;;;;15.15;9.00;;;;;;;6.68;54.38;93174.34;4938582;28;20440;-85
2021/12/04 13:31:20;;;;;;;16.38;8.77;;;;;;;6.60;53.57;93124.91;4943719;28;20115;-85
2021/12/04 13:33:49;;;;;;;15.35;8.93;;;;;;;7.16;53.52;93222.00;4930103;28;20082;-85
2021/12/04 13:36:19;;;;;;;18.25;9.65;;;;;;;5.63;53.73;92982.44;4943672;28;20038;-84
2021/12/04 13:38:50;;;;;;;13.27;8.23;;;;;;;7.27;53.19;93193.41;4956687;28;20112;-85
2021/12/04 13:41:16;;;;;;;13.70;8.57;;;;;;;7.34;54.45;93214.88;4952969;28;20735;-86
2021/12/04 13:43:41;;;;;;;19.58;10.43;;;;;;;5.68;53.10;92934.81;4953914;28;20070;-86
2021/12/04 13:46:07;;;;;;;13.88;8.80;;;;;;;6.36;53.23;93037.31;4935457;28;20042;-86
2021/12/04 13:48:34;;;;;;;18.25;9.18;;;;;;;7.63;52.40;93209.06;4951842;28;20050;-85
2021/12/04 13:51:00;;;;;;;16.95;10.00;;;;;;;7.53;52.62;93220.69;4957342;28;21022;-86
2021/12/04 13:53:33;;;;;;;21.75;11.57;;;;;;;7.56;52.42;93212.16;4936827;28;20076;-84
2021/12/04 13:56:21;;;;;;;17.77;9.75;;;;;;;6.31;52.60;93018.97;4935490;28;20043;-86
2021/12/04 13:58:54;;;;;;;21.70;9.90;;;;;;;5.51;52.93;92906.50;4937802;28;20404;-85
2021/12/04 14:01:21;;;;;;;20.77;11.07;;;;;;;7.27;52.90;93190.75;4938234;28;20035;-85
2021/12/04 14:03:47;;;;;;;28.35;15.57;;;;;;;5.95;53.05;92980.28;4945330;28;20038;-85
2021/12/04 14:06:15;;;;;;;25.17;13.40;;;;;;;5.81;52.50;92916.25;4956755;28;20058;-85
2021/12/04 14:08:42;;;;;;;25.23;12.98;;;;;;;7.68;52.88;93196.44;4955744;28;20023;-85
2021/12/04 14:11:08;;;;;;;24.52;12.38;;;;;;;6.88;52.08;93059.38;4937036;28;20594;-86
2021/12/04 14:13:38;;;;;;;22.35;11.43;;;;;;;5.71;52.44;92907.84;4936343;28;20130;-85
2021/12/04 14:16:05;;;;;;;22.08;12.90;;;;;;;6.93;52.72;93076.97;4934164;28;20639;-85
2021/12/04 14:18:31;;;;;;;19.23;11.05;;;;;;;7.67;52.78;93184.31;4939895;28;20073;-85
2021/12/04 14:21:02;;;;;;;18.08;10.93;;;;;;;7.64;53.01;93169.03;4939188;28;20026;-87
2021/12/04 14:23:33;;;;;;;20.55;10.82;;;;;;;6.72;53.13;93029.97;4954041;28;20365;-87
2021/12/04 14:26:03;;;;;;;19.17;11.15;;;;;;;7.63;53.13;93195.84;4937518;28;20054;-87
2021/12/04 14:28:39;;;;;;;18.98;10.88;;;;;;;5.65;54.76;93017.19;4953745;28;20144;-86
2021/12/04 14:31:05;;;;;;;25.55;11.85;;;;;;;4.52;55.11;92873.28;4952964;28;20519;-86
2021/12/04 14:33:31;;;;;;;25.17;14.68;;;;;;;5.88;56.16;93084.69;4952041;28;20174;-86
2021/12/04 14:35:56;;;;;;;21.50;12.13;;;;;;;7.14;54.99;93184.47;4949125;28;20042;-87
2021/12/04 14:38:27;;;;;;;20.35;11.20;;;;;;;7.38;54.54;93197.34;4930576;28;20068;-86
2021/12/04 14:41:03;;;;;;;21.15;11.27;;;;;;;6.81;55.28;93170.06;4949299;28;20641;-87
2021/12/04 14:43:33;;;;;;;21.95;10.43;;;;;;;6.74;55.73;93202.22;4950025;28;20361;-87
2021/12/04 14:46:05;;;;;;;21.15;11.35;;;;;;;6.22;57.13;93181.84;4947455;28;20049;-87
2021/12/04 14:48:38;;;;;;;30.20;14.93;;;;;;;5.88;57.91;93200.81;4943523;28;20085;-87
2021/12/04 14:51:19;;;;;;;37.72;16.38;;;;;;;5.83;59.26;93201.69;4933126;28;20466;-86
2021/12/04 14:53:54;;;;;;;34.58;16.02;;;;;;;5.33;59.54;93118.41;4935058;28;20074;-87
2021/12/04 14:56:22;;;;;;;30.52;15.60;;;;;;;5.93;59.47;93198.84;4935723;28;20434;-87
2021/12/04 14:58:48;;;;;;;32.25;16.85;;;;;;;5.45;60.50;93192.50;4951200;28;20042;-86
2021/12/04 15:01:16;;;;;;;34.97;17.40;;;;;;;5.21;61.09;93134.75;4954052;28;20388;-86
2021/12/04 15:03:51;;;;;;;29.48;14.90;;;;;;;6.14;59.80;93199.16;4930997;28;21075;-86